Time;durP1;ratioP1;P1;durP2;ratioP2;P2;SDS_P1;SDS_P2;PMS_P1;PMS_P2;Temp;Humidity;BMP_temperature;BMP_pressure;BME280_temperature;BME280_humidity;BME280_pressure;Samples;Min_cycle;Max_cycle;Signal;HPM_P1;HPM_P2
2024/01/04 00:01:23;;;;;;;1.00;0.50;;;6.90;99.90;;;;;;5006049;28;20186;-67
2024/01/04 00:03:49;;;;;;;1.90;0.70;;;6.30;99.90;;;;;;5013197;28;20199;-67
2024/01/04 00:06:14;;;;;;;1.93;0.67;;;7.60;99.90;;;;;;5010806;28;20698;-67
2024/01/04 00:08:40;;;;;;;2.13;0.70;;;6.20;99.90;;;;;;5018745;28;20194;-67
2024/01/04 00:11:06;;;;;;;1.33;0.73;;;6.70;99.90;;;;;;5016766;28;20294;-68
2024/01/04 00:13:32;;;;;;;1.10;0.50;;;6.10;99.90;;;;;;5022071;28;20605;-68
2024/01/04 00:15:58;;;;;;;1.67;0.57;;;6.10;99.90;;;;;;5028900;28;20452;-68
2024/01/04 00:18:24;;;;;;;2.80;1.10;;;7.10;99.90;;;;;;5032593;28;20457;-68
2024/01/04 00:20:49;;;;;;;3.23;0.60;;;6.50;99.90;;;;;;5014932;28;20183;-68
2024/01/04 00:23:15;;;;;;;1.73;0.63;;;6.10;99.90;;;;;;5031318;28;20198;-68
2024/01/04 00:25:40;;;;;;;2.90;1.30;;;6.10;99.90;;;;;;5029289;28;20185;-68
2024/01/04 00:28:07;;;;;;;2.27;0.80;;;6.10;99.90;;;;;;5021623;28;20626;-67
2024/01/04 00:30:32;;;;;;;2.60;1.03;;;7.50;99.90;;;;;;5015890;28;20620;-67
2024/01/04 00:32:58;;;;;;;2.70;0.93;;;6.10;99.90;;;;;;5012603;28;20480;-67
2024/01/04 00:35:23;;;;;;;2.10;0.80;;;7.20;99.90;;;;;;5015217;28;20199;-67
2024/01/04 00:37:49;;;;;;;1.83;0.80;;;6.20;99.90;;;;;;5019361;28;20273;-67
2024/01/04 00:40:15;;;;;;;2.10;0.53;;;7.10;99.90;;;;;;5007689;28;20187;-68
2024/01/04 00:42:40;;;;;;;1.30;0.70;;;6.10;99.90;;;;;;5017977;28;20256;-67
2024/01/04 00:45:06;;;;;;;1.40;0.70;;;7.30;99.90;;;;;;5007513;28;20218;-68
2024/01/04 00:47:32;;;;;;;3.50;0.83;;;6.10;99.90;;;;;;5012464;28;20576;-67
2024/01/04 00:49:57;;;;;;;8.97;1.57;;;6.10;99.90;;;;;;5017378;28;20610;-67
2024/01/04 00:52:24;;;;;;;1.30;0.60;;;6.10;99.90;;;;;;5012039;28;20191;-67
2024/01/04 00:54:49;;;;;;;2.47;0.93;;;7.00;99.90;;;;;;5024593;28;20182;-67
2024/01/04 00:57:15;;;;;;;1.67;0.70;;;6.10;99.90;;;;;;5005486;28;20472;-67
2024/01/04 00:59:40;;;;;;;1.93;0.90;;;6.70;99.90;;;;;;5007859;28;20272;-68
2024/01/04 01:02:06;;;;;;;1.53;0.93;;;6.20;99.90;;;;;;5009731;28;20309;-67
2024/01/04 01:04:31;;;;;;;1.20;0.60;;;6.10;99.90;;;;;;5021185;28;20640;-67
2024/01/04 01:06:57;;;;;;;4.87;0.67;;;6.60;99.90;;;;;;5011831;28;20186;-67
2024/01/04 01:09:22;;;;;;;1.20;0.60;;;6.20;99.90;;;;;;5010778;28;20202;-67
2024/01/04 01:11:48;;;;;;;10.83;0.80;;;6.20;99.90;;;;;;5012126;28;20647;-67
2024/01/04 01:14:13;;;;;;;2.37;0.77;;;6.20;99.90;;;;;;5013598;28;20176;-67
2024/01/04 01:16:39;;;;;;;2.03;0.97;;;6.20;99.90;;;;;;5022280;28;20635;-67
2024/01/04 01:19:05;;;;;;;2.70;1.00;;;6.20;99.90;;;;;;5012393;28;20225;-68
2024/01/04 01:21:30;;;;;;;3.23;0.70;;;6.20;99.90;;;;;;5021638;28;20190;-67
2024/01/04 01:23:56;;;;;;;2.90;0.70;;;6.20;99.90;;;;;;5024560;28;20260;-67
2024/01/04 01:26:21;;;;;;;1.40;0.60;;;6.20;99.90;;;;;;5015022;28;20190;-67
2024/01/04 01:28:47;;;;;;;1.20;0.60;;;6.50;99.90;;;;;;5031148;28;20539;-67
2024/01/04 01:31:12;;;;;;;2.57;0.90;;;6.20;99.90;;;;;;5021317;28;20262;-68
2024/01/04 01:33:42;;;;;;;1.53;0.87;;;6.20;99.90;;;;;;5022699;28;20183;-67
2024/01/04 01:36:09;;;;;;;1.10;0.47;;;6.10;99.90;;;;;;5011451;28;20773;-67
2024/01/04 01:38:34;;;;;;;1.43;0.70;;;6.10;99.90;;;;;;5008686;28;20454;-68
2024/01/04 01:41:00;;;;;;;4.30;1.63;;;6.10;99.90;;;;;;5016515;28;20436;-67
2024/01/04 01:43:25;;;;;;;6.00;0.77;;;6.10;99.90;;;;;;5016572;28;20247;-67
2024/01/04 01:45:51;;;;;;;2.40;0.83;;;6.10;99.90;;;;;;5007054;28;20198;-67
2024/01/04 01:48:16;;;;;;;1.20;0.50;;;6.10;99.90;;;;;;5011843;28;20267;-67
2024/01/04 01:50:42;;;;;;;3.23;0.73;;;6.10;99.90;;;;;;5020776;28;20289;-67
2024/01/04 01:53:08;;;;;;;1.87;0.80;;;6.10;99.90;;;;;;5010527;28;20183;-67
2024/01/04 01:55:33;;;;;;;1.83;0.67;;;6.40;99.90;;;;;;5022039;28;20191;-67
2024/01/04 01:57:59;;;;;;;1.30;0.60;;;6.10;99.90;;;;;;5010028;28;20464;-66
2024/01/04 02:00:25;;;;;;;2.17;0.60;;;6.30;99.90;;;;;;5004129;28;20660;-67
2024/01/04 02:02:52;;;;;;;7.37;1.10;;;6.00;99.90;;;;;;5011642;28;20458;-66
2024/01/04 02:05:17;;;;;;;1.40;0.50;;;5.90;99.90;;;;;;5011363;28;20844;-67
2024/01/04 02:07:43;;;;;;;1.30;0.60;;;5.80;99.90;;;;;;5025860;28;20500;-66
2024/01/04 02:10:09;;;;;;;2.37;0.50;;;5.70;99.90;;;;;;5006196;28;20255;-66
2024/01/04 02:12:35;;;;;;;1.70;0.60;;;5.60;99.90;;;;;;5022340;28;20917;-66
2024/01/04 02:15:00;;;;;;;1.10;0.53;;;5.60;99.90;;;;;;5011454;28;20175;-66
2024/01/04 02:17:28;;;;;;;6.73;1.00;;;5.60;99.90;;;;;;5020913;28;20194;-66
2024/01/04 02:19:56;;;;;;;1.37;0.60;;;5.80;99.90;;;;;;5018762;28;20190;-66
2024/01/04 02:22:21;;;;;;;1.30;0.50;;;6.00;99.90;;;;;;5030741;28;20471;-67
2024/01/04 02:24:47;;;;;;;1.87;0.87;;;5.70;99.90;;;;;;5009569;28;20429;-67
2024/01/04 02:27:14;;;;;;;5.03;1.07;;;5.60;99.90;;;;;;5024166;28;20647;-67
2024/01/04 02:29:39;;;;;;;3.60;0.87;;;5.60;99.90;;;;;;5016502;28;20242;-67
2024/01/04 02:32:05;;;;;;;1.60;0.83;;;5.60;99.90;;;;;;5015955;28;20885;-67
2024/01/04 02:34:32;;;;;;;5.47;0.93;;;5.60;99.90;;;;;;5030937;28;20178;-67
2024/01/04 02:36:57;;;;;;;2.43;0.97;;;5.90;99.90;;;;;;5030775;28;20751;-68
2024/01/04 02:39:23;;;;;;;1.53;0.50;;;5.60;99.90;;;;;;5022690;28;20424;-68
2024/01/04 02:41:48;;;;;;;1.43;0.47;;;5.80;99.90;;;;;;5015430;28;20655;-67
2024/01/04 02:44:14;;;;;;;2.47;0.90;;;6.00;99.90;;;;;;5014122;28;20648;-67
2024/01/04 02:46:39;;;;;;;2.20;0.77;;;5.60;99.90;;;;;;5014378;28;20707;-67
2024/01/04 02:49:05;;;;;;;1.60;0.53;;;5.50;99.90;;;;;;5015271;28;20179;-67
2024/01/04 02:51:31;;;;;;;1.60;0.50;;;5.40;99.90;;;;;;5018888;28;20258;-67
2024/01/04 02:53:56;;;;;;;1.57;0.70;;;5.40;99.90;;;;;;5030431;28;20175;-68
2024/01/04 02:56:22;;;;;;;1.20;0.50;;;5.30;99.90;;;;;;5031520;28;20273;-68
2024/01/04 02:58:47;;;;;;;3.00;0.80;;;5.20;99.90;;;;;;5030395;28;20668;-67
2024/01/04 03:01:20;;;;;;;1.63;0.50;;;5.20;99.90;;;;;;5016768;28;20194;-66
2024/01/04 03:03:45;;;;;;;1.00;0.40;;;5.10;99.90;;;;;;5014522;28;20202;-67
2024/01/04 03:06:11;;;;;;;2.27;0.60;;;5.10;99.90;;;;;;5019756;28;20849;-67
2024/01/04 03:08:36;;;;;;;1.10;0.50;;;5.10;99.90;;;;;;5014743;28;20198;-67
2024/01/04 03:11:02;;;;;;;1.20;0.50;;;5.40;99.90;;;;;;5013531;28;20187;-67
2024/01/04 03:13:28;;;;;;;1.20;0.60;;;5.10;99.90;;;;;;5014581;28;20195;-67
2024/01/04 03:15:53;;;;;;;1.10;0.50;;;5.10;99.90;;;;;;5026064;28;20191;-67
2024/01/04 03:18:19;;;;;;;1.00;0.40;;;5.10;99.90;;;;;;5017134;28;20303;-67
2024/01/04 03:20:44;;;;;;;1.03;0.47;;;5.10;99.90;;;;;;5033640;28;20626;-67
2024/01/04 03:23:09;;;;;;;1.00;0.40;;;5.10;99.90;;;;;;5034141;28;20225;-67
2024/01/04 03:25:35;;;;;;;1.00;0.40;;;5.10;99.90;;;;;;5033933;28;20186;-66
2024/01/04 03:28:00;;;;;;;1.00;0.40;;;5.60;99.90;;;;;;5033324;28;20183;-66
2024/01/04 03:30:26;;;;;;;1.10;0.40;;;5.00;99.90;;;;;;5020395;28;20631;-66
2024/01/04 03:32:51;;;;;;;1.00;0.40;;;5.40;99.90;;;;;;5023678;28;20191;-66
2024/01/04 03:35:17;;;;;;;2.30;0.40;;;5.10;99.90;;;;;;5024014;28;20213;-66
2024/01/04 03:37:42;;;;;;;1.10;0.60;;;5.10;99.90;;;;;;5024343;28;20191;-66
2024/01/04 03:40:08;;;;;;;1.30;0.40;;;5.20;99.90;;;;;;5020060;28;20253;-66
2024/01/04 03:42:34;;;;;;;1.00;0.50;;;5.20;99.90;;;;;;5013844;28;20636;-66
2024/01/04 03:45:00;;;;;;;1.00;0.40;;;5.20;99.90;;;;;;5018489;28;20505;-66
2024/01/04 03:47:26;;;;;;;1.20;0.50;;;5.20;99.90;;;;;;5013675;28;20203;-66
2024/01/04 03:49:51;;;;;;;1.10;0.50;;;5.30;99.90;;;;;;5025768;28;20178;-66
2024/01/04 03:52:17;;;;;;;3.37;0.80;;;5.30;99.90;;;;;;5015503;28;20440;-66
2024/01/04 03:54:42;;;;;;;1.00;0.40;;;5.70;99.90;;;;;;5016363;28;20198;-67
2024/01/04 03:57:08;;;;;;;4.33;0.60;;;5.40;99.90;;;;;;5023872;28;20218;-66
2024/01/04 03:59:37;;;;;;;2.20;0.57;;;5.70;99.90;;;;;;5013712;28;20923;-66
2024/01/04 04:02:02;;;;;;;1.63;0.70;;;5.40;99.90;;;;;;5010241;28;20599;-66
2024/01/04 04:04:28;;;;;;;3.07;0.63;;;5.50;99.90;;;;;;5022428;28;20468;-66
2024/01/04 04:06:53;;;;;;;3.37;0.67;;;5.50;99.90;;;;;;5020295;28;20190;-66
2024/01/04 04:09:19;;;;;;;3.77;0.50;;;6.20;99.90;;;;;;5019511;28;20606;-66
2024/01/04 04:11:47;;;;;;;3.40;0.80;;;6.00;99.90;;;;;;5033044;28;20269;-65
2024/01/04 04:14:13;;;;;;;5.30;1.50;;;5.70;99.90;;;;;;5016568;28;20218;-66
2024/01/04 04:16:41;;;;;;;5.10;0.63;;;5.90;99.90;;;;;;5018393;28;20886;-66
2024/01/04 04:19:08;;;;;;;3.43;0.50;;;5.80;99.90;;;;;;5017652;28;20194;-68
2024/01/04 04:21:33;;;;;;;2.60;0.90;;;5.80;99.90;;;;;;5032470;28;20432;-68
2024/01/04 04:23:59;;;;;;;1.27;0.57;;;6.00;99.90;;;;;;5032960;28;20453;-68
2024/01/04 04:26:24;;;;;;;1.33;0.50;;;5.80;99.90;;;;;;5032840;28;20221;-67
2024/01/04 04:28:51;;;;;;;4.20;0.80;;;5.70;99.90;;;;;;5016786;28;20658;-66
2024/01/04 04:31:17;;;;;;;1.50;0.50;;;5.70;99.90;;;;;;5015139;28;20221;-67
2024/01/04 04:33:47;;;;;;;1.40;0.50;;;5.80;99.90;;;;;;5032597;28;20830;-66
2024/01/04 04:36:13;;;;;;;2.03;0.70;;;6.10;99.90;;;;;;5030141;28;20421;-66
2024/01/04 04:38:39;;;;;;;1.30;0.80;;;5.80;99.90;;;;;;5006737;28;20427;-66
2024/01/04 04:41:06;;;;;;;1.00;0.50;;;5.80;99.90;;;;;;5009824;28;20448;-66
2024/01/04 04:43:34;;;;;;;1.10;0.50;;;5.80;99.90;;;;;;5009158;28;20458;-66
2024/01/04 04:46:01;;;;;;;1.70;0.50;;;5.70;99.90;;;;;;5019400;28;20425;-66
2024/01/04 04:48:27;;;;;;;1.00;0.40;;;5.70;99.90;;;;;;5018952;28;20860;-67
2024/01/04 04:50:54;;;;;;;1.43;0.70;;;5.70;99.90;;;;;;5021324;28;20993;-66
2024/01/04 04:53:20;;;;;;;1.00;0.40;;;5.70;99.90;;;;;;5023164;28;20296;-67
2024/01/04 04:55:45;;;;;;;6.40;0.60;;;5.70;99.90;;;;;;5021889;28;20441;-67
2024/01/04 04:58:11;;;;;;;1.30;0.60;;;5.70;99.90;;;;;;5002072;28;20471;-66
2024/01/04 05:00:36;;;;;;;3.30;1.00;;;5.70;99.90;;;;;;5005004;28;20199;-67
2024/01/04 05:03:02;;;;;;;1.50;0.60;;;5.60;99.90;;;;;;5021845;28;20215;-67
2024/01/04 05:05:28;;;;;;;1.50;0.60;;;5.50;99.90;;;;;;5031209;28;20308;-67
2024/01/04 05:07:55;;;;;;;5.80;0.80;;;5.50;99.90;;;;;;5027985;28;20422;-66
2024/01/04 05:10:20;;;;;;;3.27;0.83;;;5.60;99.90;;;;;;5014884;28;20429;-67
2024/01/04 05:12:46;;;;;;;1.00;0.50;;;5.60;99.90;;;;;;5032073;28;20429;-65
2024/01/04 05:15:11;;;;;;;1.67;0.83;;;6.00;99.90;;;;;;5031936;28;20225;-66
2024/01/04 05:17:37;;;;;;;2.50;0.70;;;5.90;99.90;;;;;;5014868;28;20187;-66
2024/01/04 05:20:04;;;;;;;3.23;0.80;;;5.70;99.90;;;;;;5020648;28;20193;-66
2024/01/04 05:22:29;;;;;;;1.40;0.70;;;5.70;99.90;;;;;;5014587;28;20209;-66
2024/01/04 05:24:55;;;;;;;5.70;0.93;;;6.00;99.90;;;;;;5017840;28;20839;-66
2024/01/04 05:27:21;;;;;;;5.10;0.80;;;5.70;99.90;;;;;;5018940;28;20437;-66
2024/01/04 05:29:47;;;;;;;3.57;0.80;;;5.60;99.90;;;;;;5016012;28;20643;-66
2024/01/04 05:32:12;;;;;;;1.00;0.50;;;5.60;99.90;;;;;;5020645;28;20191;-66
2024/01/04 05:34:38;;;;;;;2.23;0.63;;;5.70;99.90;;;;;;5011701;28;20187;-67
2024/01/04 05:37:03;;;;;;;1.10;0.50;;;5.60;99.90;;;;;;5019772;28;20216;-66
2024/01/04 05:39:29;;;;;;;2.10;0.53;;;5.60;99.90;;;;;;5021991;28;20650;-67
2024/01/04 05:41:54;;;;;;;1.30;0.53;;;6.10;99.90;;;;;;5011478;28;20190;-66
2024/01/04 05:44:20;;;;;;;1.47;0.90;;;5.60;99.90;;;;;;5012539;28;20218;-67
2024/01/04 05:46:45;;;;;;;1.47;0.73;;;5.60;99.90;;;;;;5011589;28;20189;-66
2024/01/04 05:49:11;;;;;;;1.03;0.40;;;5.60;99.90;;;;;;5020154;28;20666;-66
2024/01/04 05:51:36;;;;;;;1.20;0.60;;;5.60;99.90;;;;;;5011012;28;20642;-66
2024/01/04 05:54:02;;;;;;;2.63;0.93;;;5.60;99.90;;;;;;5018882;28;20215;-67
2024/01/04 05:56:28;;;;;;;1.20;0.50;;;5.60;99.90;;;;;;5019898;28;20218;-67
2024/01/04 05:58:54;;;;;;;9.70;0.90;;;5.60;99.90;;;;;;5018198;28;20481;-66
2024/01/04 06:01:19;;;;;;;4.60;1.23;;;5.60;99.90;;;;;;5007201;28;20425;-66
2024/01/04 06:03:45;;;;;;;4.70;1.00;;;5.60;99.90;;;;;;5021447;28;20207;-66
2024/01/04 06:06:14;;;;;;;5.30;1.00;;;5.70;99.90;;;;;;5020553;28;20189;-66
2024/01/04 06:08:41;;;;;;;4.13;1.43;;;5.70;99.90;;;;;;5020949;28;20266;-66
2024/01/04 06:11:06;;;;;;;6.80;1.50;;;5.70;99.90;;;;;;5016411;28;20418;-66
2024/01/04 06:13:32;;;;;;;1.90;0.60;;;6.20;99.90;;;;;;5015684;28;21019;-66
2024/01/04 06:15:57;;;;;;;7.93;1.07;;;5.60;99.90;;;;;;5013935;28;20344;-67
2024/01/04 06:18:23;;;;;;;1.90;0.80;;;5.60;99.90;;;;;;5023065;28;20913;-66
2024/01/04 06:20:48;;;;;;;2.67;1.13;;;5.70;99.90;;;;;;5026457;28;20183;-66
2024/01/04 06:23:15;;;;;;;3.90;0.97;;;6.30;99.90;;;;;;5015060;28;20563;-66
2024/01/04 06:25:40;;;;;;;2.50;1.27;;;6.40;99.90;;;;;;5015180;28;20181;-66
2024/01/04 06:28:06;;;;;;;6.97;2.00;;;6.40;99.90;;;;;;5020569;28;20419;-66
2024/01/04 06:30:34;;;;;;;5.83;1.60;;;5.60;99.90;;;;;;5011058;28;20179;-66
2024/01/04 06:33:00;;;;;;;5.83;1.63;;;6.00;99.90;;;;;;5021902;28;20516;-66
2024/01/04 06:35:25;;;;;;;4.30;1.47;;;5.60;99.90;;;;;;5026207;28;20421;-66
2024/01/04 06:37:51;;;;;;;4.33;1.13;;;5.60;99.90;;;;;;5034782;28;20191;-66
2024/01/04 06:40:16;;;;;;;4.83;1.20;;;5.60;99.90;;;;;;5018467;28;20286;-66
2024/01/04 06:42:42;;;;;;;5.50;2.03;;;5.50;99.90;;;;;;5014606;28;20309;-66
2024/01/04 06:45:08;;;;;;;4.70;0.90;;;5.50;99.90;;;;;;5027353;28;20846;-69
2024/01/04 06:47:34;;;;;;;2.20;1.10;;;5.50;99.90;;;;;;5014683;28;20487;-67
2024/01/04 06:49:59;;;;;;;3.00;1.03;;;5.60;99.90;;;;;;5019439;28;20233;-66
2024/01/04 06:52:25;;;;;;;3.77;1.13;;;5.50;99.90;;;;;;5014178;28;20195;-66
2024/01/04 06:54:50;;;;;;;1.80;0.90;;;5.50;99.90;;;;;;5014223;28;20307;-67
2024/01/04 06:57:16;;;;;;;10.83;1.10;;;5.80;99.90;;;;;;5025964;28;20218;-67
2024/01/04 06:59:41;;;;;;;5.23;0.90;;;5.50;99.90;;;;;;5012365;28;20593;-66
2024/01/04 07:02:07;;;;;;;4.03;0.80;;;5.50;99.90;;;;;;5021628;28;20193;-67
2024/01/04 07:04:33;;;;;;;2.90;1.43;;;5.50;99.90;;;;;;5017080;28;20183;-67
2024/01/04 07:06:58;;;;;;;2.70;0.90;;;5.50;99.90;;;;;;5013927;28;20180;-67
2024/01/04 07:09:23;;;;;;;1.70;0.70;;;5.40;99.90;;;;;;5022035;28;20675;-67
2024/01/04 07:11:49;;;;;;;4.97;1.23;;;5.40;99.90;;;;;;5013949;28;20206;-67
2024/01/04 07:14:14;;;;;;;4.00;1.50;;;5.40;99.90;;;;;;5020968;28;20187;-66
2024/01/04 07:16:49;;;;;;;1.77;0.90;;;5.40;99.90;;;;;;5019384;28;20637;-66
2024/01/04 07:19:14;;;;;;;4.70;0.73;;;5.40;99.90;;;;;;5016712;28;20194;-66
2024/01/04 07:21:41;;;;;;;1.60;0.60;;;5.40;99.90;;;;;;5019056;28;20471;-66
2024/01/04 07:24:07;;;;;;;4.53;0.90;;;5.40;99.90;;;;;;5017188;28;20210;-66
2024/01/04 07:26:32;;;;;;;5.00;1.33;;;5.40;99.90;;;;;;5023324;28;20429;-66
2024/01/04 07:28:58;;;;;;;2.93;0.70;;;5.50;99.90;;;;;;5015570;28;20190;-66
2024/01/04 07:31:23;;;;;;;2.80;1.07;;;5.50;99.90;;;;;;5013515;28;20190;-66
2024/01/04 07:33:49;;;;;;;1.37;0.73;;;5.40;99.90;;;;;;5028375;28;20815;-66
2024/01/04 07:36:14;;;;;;;10.37;1.50;;;5.50;99.90;;;;;;5033191;28;20193;-66
2024/01/04 07:38:40;;;;;;;17.17;1.53;;;6.00;99.90;;;;;;5016772;28;20310;-66
2024/01/04 07:41:06;;;;;;;2.20;0.73;;;5.40;99.90;;;;;;5022471;28;20178;-66
2024/01/04 07:43:31;;;;;;;3.57;1.23;;;5.90;99.90;;;;;;5019728;28;20547;-66
2024/01/04 07:45:57;;;;;;;1.50;0.60;;;5.50;99.90;;;;;;5015474;28;20187;-66
2024/01/04 07:48:22;;;;;;;3.83;1.30;;;5.50;99.90;;;;;;5013292;28;20191;-67
2024/01/04 07:50:47;;;;;;;2.80;0.80;;;5.40;99.90;;;;;;5018054;28;20970;-66
2024/01/04 07:53:13;;;;;;;1.40;0.60;;;5.50;99.90;;;;;;5014936;28;20182;-66
2024/01/04 07:55:39;;;;;;;4.57;0.67;;;5.50;99.90;;;;;;5023712;28;20183;-66
2024/01/04 07:58:04;;;;;;;2.57;1.00;;;5.50;99.90;;;;;;5004277;28;20239;-67
2024/01/04 08:00:30;;;;;;;5.67;1.80;;;5.50;99.90;;;;;;5005526;28;20309;-66
2024/01/04 08:02:55;;;;;;;2.33;0.93;;;5.60;99.90;;;;;;5013136;28;20241;-66
2024/01/04 08:05:21;;;;;;;11.03;0.90;;;5.60;99.90;;;;;;5022116;28;20535;-66
2024/01/04 08:07:46;;;;;;;4.50;1.70;;;5.60;99.90;;;;;;5027674;28;20197;-66
2024/01/04 08:10:12;;;;;;;4.97;1.40;;;5.60;99.90;;;;;;5032758;28;20183;-66
2024/01/04 08:12:41;;;;;;;8.90;1.10;;;6.00;99.90;;;;;;5016786;28;20186;-66
2024/01/04 08:15:08;;;;;;;2.73;0.70;;;5.60;99.90;;;;;;5019906;28;20187;-66
2024/01/04 08:17:35;;;;;;;6.73;1.10;;;5.60;99.90;;;;;;5022154;28;20433;-66
2024/01/04 08:20:00;;;;;;;8.53;1.30;;;5.60;99.90;;;;;;5012663;28;21058;-66
2024/01/04 08:22:26;;;;;;;6.73;1.60;;;6.30;99.90;;;;;;5020296;28;20457;-66
2024/01/04 08:24:51;;;;;;;2.13;0.83;;;6.10;99.90;;;;;;5019693;28;20182;-66
2024/01/04 08:27:20;;;;;;;3.23;1.47;;;6.20;99.90;;;;;;5017847;28;20539;-66
2024/01/04 08:29:48;;;;;;;7.50;1.43;;;5.60;99.90;;;;;;5021952;28;20183;-66
2024/01/04 08:32:14;;;;;;;2.97;0.90;;;5.70;99.90;;;;;;5016841;28;20430;-69
2024/01/04 08:34:40;;;;;;;2.60;0.80;;;5.70;99.90;;;;;;5016387;28;20469;-66
2024/01/04 08:37:05;;;;;;;3.00;1.20;;;5.80;99.90;;;;;;5005294;28;20434;-66
2024/01/04 08:39:31;;;;;;;3.10;1.20;;;6.30;99.90;;;;;;5012326;28;20219;-69
2024/01/04 08:41:57;;;;;;;4.47;2.00;;;5.70;99.90;;;;;;5012135;28;20631;-69
2024/01/04 08:44:23;;;;;;;3.07;1.20;;;5.70;99.90;;;;;;5023400;28;20468;-67
2024/01/04 08:46:50;;;;;;;5.10;1.37;;;5.70;99.90;;;;;;5015115;28;20187;-67
2024/01/04 08:49:16;;;;;;;2.50;1.23;;;5.70;99.90;;;;;;5022561;28;20174;-67
2024/01/04 08:51:41;;;;;;;2.60;1.20;;;6.30;99.90;;;;;;5014525;28;20549;-67
2024/01/04 08:54:07;;;;;;;12.33;2.00;;;5.80;99.90;;;;;;5029623;28;20205;-67
2024/01/04 08:56:33;;;;;;;3.87;1.20;;;5.80;99.90;;;;;;5010780;28;20536;-68
2024/01/04 08:58:58;;;;;;;7.43;2.07;;;5.80;99.90;;;;;;5014920;28;20229;-68
2024/01/04 09:01:24;;;;;;;10.00;2.70;;;6.80;99.90;;;;;;5004672;28;20504;-68
2024/01/04 09:03:50;;;;;;;1.57;0.80;;;5.80;99.90;;;;;;5012401;28;20790;-68
2024/01/04 09:06:16;;;;;;;1.10;0.60;;;5.80;99.90;;;;;;5013511;28;20707;-68
2024/01/04 09:08:41;;;;;;;6.17;0.87;;;5.70;99.90;;;;;;5024009;28;20190;-68
2024/01/04 09:11:07;;;;;;;3.53;0.80;;;5.60;99.90;;;;;;5027642;28;20500;-68
2024/01/04 09:13:33;;;;;;;9.60;0.70;;;5.60;99.90;;;;;;5016402;28;20554;-68
2024/01/04 09:15:58;;;;;;;1.83;0.60;;;5.50;99.90;;;;;;5014410;28;20179;-68
2024/01/04 09:18:24;;;;;;;2.90;0.87;;;5.50;99.90;;;;;;5012005;28;20194;-68
2024/01/04 09:20:49;;;;;;;3.83;1.07;;;5.50;99.90;;;;;;5022394;28;20195;-68
2024/01/04 09:23:15;;;;;;;3.30;0.90;;;5.60;99.90;;;;;;5022224;28;20208;-70
2024/01/04 09:25:40;;;;;;;2.90;0.90;;;5.70;99.90;;;;;;5027918;28;20194;-68
2024/01/04 09:28:06;;;;;;;1.20;0.60;;;5.70;99.90;;;;;;5018095;28;20267;-68
2024/01/04 09:30:31;;;;;;;5.20;1.30;;;6.10;99.90;;;;;;5020325;28;20241;-68
2024/01/04 09:32:58;;;;;;;2.40;0.83;;;5.90;99.90;;;;;;5019537;28;20202;-68
2024/01/04 09:35:23;;;;;;;4.47;0.87;;;6.00;99.90;;;;;;5016485;28;20229;-68
2024/01/04 09:37:52;;;;;;;1.47;0.80;;;6.40;99.90;;;;;;5006900;28;20489;-68
2024/01/04 09:40:21;;;;;;;2.13;0.90;;;6.20;99.90;;;;;;5006996;28;20265;-68
2024/01/04 09:42:48;;;;;;;9.43;1.10;;;6.30;99.90;;;;;;5017052;28;20529;-68
2024/01/04 09:45:18;;;;;;;1.30;0.67;;;7.40;99.90;;;;;;5005424;28;20424;-69
2024/01/04 09:47:44;;;;;;;4.37;1.37;;;6.50;99.90;;;;;;5017564;28;20428;-68
2024/01/04 09:50:11;;;;;;;5.47;1.90;;;7.10;99.90;;;;;;5026555;28;20847;-68
2024/01/04 09:52:39;;;;;;;1.37;0.70;;;6.60;99.90;;;;;;5017142;28;20448;-69
2024/01/04 09:55:07;;;;;;;2.40;1.00;;;7.10;99.90;;;;;;5007637;28;20441;-69
2024/01/04 09:57:33;;;;;;;3.83;1.23;;;7.00;99.90;;;;;;5019413;28;20461;-68
2024/01/04 09:59:59;;;;;;;14.10;1.60;;;7.50;99.90;;;;;;5009156;28;20426;-68
2024/01/04 10:02:25;;;;;;;3.90;1.03;;;7.40;99.90;;;;;;5010675;28;20442;-69
2024/01/04 10:04:51;;;;;;;1.77;0.90;;;7.40;99.90;;;;;;5028822;28;20185;-70
2024/01/04 10:07:24;;;;;;;1.70;0.80;;;7.20;99.90;;;;;;5014382;28;20262;-70
2024/01/04 10:10:12;;;;;;;6.63;1.20;;;7.50;99.90;;;;;;5020975;28;20765;-70
2024/01/04 10:12:42;;;;;;;1.30;0.60;;;7.30;99.90;;;;;;5013399;28;20970;-69
2024/01/04 10:15:11;;;;;;;1.60;0.80;;;7.60;99.90;;;;;;5021909;28;20910;-69
2024/01/04 10:17:38;;;;;;;1.20;0.60;;;7.60;99.90;;;;;;5027568;28;20934;-70
2024/01/04 10:20:04;;;;;;;21.40;1.27;;;7.70;99.90;;;;;;5024734;28;20453;-69
2024/01/04 10:22:30;;;;;;;1.77;0.90;;;7.80;99.90;;;;;;5023412;28;21084;-70
2024/01/04 10:25:09;;;;;;;2.80;0.70;;;7.70;99.90;;;;;;5016055;28;20422;-70
2024/01/04 10:27:35;;;;;;;4.03;1.23;;;7.80;99.90;;;;;;5022251;28;20640;-70
2024/01/04 10:30:05;;;;;;;1.20;0.60;;;7.90;99.90;;;;;;5008878;28;20448;-69
2024/01/04 10:32:32;;;;;;;2.00;1.07;;;7.70;99.90;;;;;;5001945;28;20191;-69
2024/01/04 10:35:06;;;;;;;4.40;0.83;;;7.70;99.90;;;;;;5006582;28;20915;-69
2024/01/04 10:37:33;;;;;;;9.13;1.00;;;7.50;99.90;;;;;;5006705;28;20480;-69
2024/01/04 10:40:03;;;;;;;1.87;0.80;;;7.50;99.90;;;;;;5003552;28;20462;-68
2024/01/04 10:42:30;;;;;;;4.67;1.57;;;7.30;99.90;;;;;;5015031;28;20468;-69
2024/01/04 10:44:56;;;;;;;1.50;0.70;;;7.50;99.90;;;;;;5014233;28;20413;-69
2024/01/04 10:47:21;;;;;;;1.30;0.63;;;7.50;99.90;;;;;;5033420;28;20921;-69
2024/01/04 10:49:49;;;;;;;3.20;1.00;;;7.50;99.90;;;;;;5002945;28;20453;-69
2024/01/04 10:52:16;;;;;;;2.93;1.07;;;7.40;99.90;;;;;;5025335;28;20616;-70
2024/01/04 10:54:42;;;;;;;4.60;1.03;;;7.40;99.90;;;;;;5014064;28;20844;-70
2024/01/04 10:57:09;;;;;;;2.80;0.60;;;7.50;99.90;;;;;;5015212;28;20465;-69
2024/01/04 10:59:35;;;;;;;1.20;0.60;;;7.20;99.90;;;;;;5014117;28;20423;-69
2024/01/04 11:02:01;;;;;;;2.37;0.97;;;7.30;99.90;;;;;;5010610;28;20438;-70
2024/01/04 11:04:28;;;;;;;5.70;1.47;;;7.20;99.90;;;;;;5023991;28;20576;-70
2024/01/04 11:06:55;;;;;;;3.30;1.00;;;7.20;99.90;;;;;;5021082;28;20433;-68
2024/01/04 11:09:22;;;;;;;8.93;1.03;;;7.20;99.90;;;;;;5018832;28;20585;-69
2024/01/04 11:11:52;;;;;;;2.90;1.10;;;7.30;99.90;;;;;;5021139;28;20434;-69
2024/01/04 11:14:19;;;;;;;6.13;1.10;;;7.20;99.90;;;;;;5022935;28;20425;-69
2024/01/04 11:16:45;;;;;;;4.57;0.63;;;7.30;99.90;;;;;;5015117;28;20436;-69
2024/01/04 11:19:49;;;;;;;4.03;0.80;;;7.20;99.90;;;;;;5023085;28;20429;-68
2024/01/04 11:22:49;;;;;;;3.70;1.10;;;7.30;99.90;;;;;;5022892;28;20214;-69
2024/01/04 11:25:42;;;;;;;2.60;0.90;;;7.20;99.90;;;;;;5011907;28;20426;-69
2024/01/04 11:28:10;;;;;;;3.10;0.73;;;7.10;99.90;;;;;;5003022;28;20410;-69
2024/01/04 11:30:36;;;;;;;7.20;0.97;;;7.00;99.90;;;;;;5016919;28;20751;-69
2024/01/04 11:33:04;;;;;;;2.47;1.00;;;6.90;99.90;;;;;;5029710;28;20427;-69
2024/01/04 11:35:35;;;;;;;1.77;0.57;;;6.80;99.90;;;;;;5016102;28;20272;-69
2024/01/04 11:38:06;;;;;;;2.27;0.83;;;6.80;99.90;;;;;;5019228;28;20864;-69
2024/01/04 11:40:32;;;;;;;3.07;1.10;;;6.80;99.90;;;;;;5021003;28;20422;-70
2024/01/04 11:42:59;;;;;;;2.43;0.90;;;6.90;99.90;;;;;;5020682;28;20483;-69
2024/01/04 11:45:25;;;;;;;1.10;0.50;;;7.10;99.90;;;;;;5006248;28;20197;-69
2024/01/04 11:47:51;;;;;;;3.00;0.60;;;7.20;99.90;;;;;;5020008;28;20418;-69
2024/01/04 11:50:25;;;;;;;1.37;0.70;;;7.30;99.90;;;;;;5014019;28;20468;-69
2024/01/04 11:53:03;;;;;;;1.57;0.63;;;7.40;99.90;;;;;;5027862;28;20432;-69
2024/01/04 11:55:29;;;;;;;3.50;1.10;;;7.60;99.90;;;;;;5007731;28;20487;-69
2024/01/04 11:58:09;;;;;;;2.07;0.70;;;8.10;99.90;;;;;;5022427;28;20461;-69
2024/01/04 12:00:36;;;;;;;1.10;0.40;;;8.20;99.90;;;;;;5005328;28;20241;-70
2024/01/04 12:03:11;;;;;;;2.90;0.83;;;7.80;99.90;;;;;;5012989;28;20461;-70
2024/01/04 12:05:36;;;;;;;5.50;0.90;;;7.40;99.90;;;;;;5014036;28;21417;-69
2024/01/04 12:08:03;;;;;;;5.93;1.50;;;7.30;99.90;;;;;;5010497;28;20533;-69
2024/01/04 12:10:28;;;;;;;3.17;0.80;;;7.20;99.90;;;;;;5012828;28;20183;-69
2024/01/04 12:12:54;;;;;;;3.30;1.43;;;7.10;99.90;;;;;;5022838;28;20464;-70
2024/01/04 12:15:20;;;;;;;2.13;0.87;;;7.20;99.90;;;;;;5022127;28;20201;-68
2024/01/04 12:17:45;;;;;;;1.57;0.70;;;7.20;99.90;;;;;;5026275;28;20233;-68
2024/01/04 12:20:12;;;;;;;1.37;0.53;;;7.00;99.90;;;;;;5018046;28;20437;-68
2024/01/04 12:22:41;;;;;;;1.37;0.60;;;6.80;99.90;;;;;;5021224;28;20210;-69
2024/01/04 12:25:07;;;;;;;2.37;0.80;;;6.70;99.90;;;;;;5012563;28;20458;-70
2024/01/04 12:27:36;;;;;;;1.53;0.70;;;6.90;99.90;;;;;;5020198;28;20441;-68
2024/01/04 12:30:05;;;;;;;1.10;0.50;;;6.60;99.90;;;;;;5006221;28;20969;-69
2024/01/04 12:32:31;;;;;;;4.07;0.97;;;6.50;99.90;;;;;;5018560;28;20419;-69
2024/01/04 12:34:57;;;;;;;1.40;0.60;;;6.40;99.90;;;;;;5019870;28;20425;-68
2024/01/04 12:37:22;;;;;;;1.77;0.50;;;6.40;99.90;;;;;;5014817;28;20429;-69
2024/01/04 12:39:49;;;;;;;1.50;0.60;;;6.40;99.90;;;;;;5018941;28;20187;-69
2024/01/04 12:42:14;;;;;;;7.80;0.93;;;6.50;99.90;;;;;;5014397;28;20645;-70
2024/01/04 12:44:40;;;;;;;2.57;0.50;;;6.50;99.90;;;;;;5018766;28;20434;-70
2024/01/04 12:47:05;;;;;;;4.40;0.90;;;6.80;99.90;;;;;;5030094;28;20631;-69
2024/01/04 12:49:31;;;;;;;3.83;0.50;;;6.90;99.90;;;;;;5013667;28;20558;-69
2024/01/04 12:51:56;;;;;;;2.13;0.60;;;6.60;99.90;;;;;;5011470;28;20191;-68
2024/01/04 12:54:22;;;;;;;5.00;1.13;;;6.70;99.90;;;;;;5006380;28;20234;-69